createdAt,value
2018-02-21T00:01:27.521Z,99558.16
2018-02-21T00:03:54.014Z,99552.00
2018-02-21T00:06:20.349Z,99551.80
2018-02-21T00:08:46.697Z,99553.02
2018-02-21T00:11:13.062Z,99550.59
2018-02-21T00:13:39.410Z,99553.65
2018-02-21T00:16:05.758Z,99548.42
2018-02-21T00:18:32.128Z,99547.05
2018-02-21T00:20:58.550Z,99544.03
2018-02-21T00:23:24.902Z,99550.61
2018-02-21T00:25:51.286Z,99548.92
2018-02-21T00:28:17.742Z,99546.65
2018-02-21T00:30:44.174Z,99557.91
2018-02-21T00:33:10.677Z,99546.06
2018-02-21T00:35:37.065Z,99551.28
2018-02-21T00:38:03.481Z,99552.22
2018-02-21T00:40:29.857Z,99553.38
2018-02-21T00:42:56.242Z,99555.09
2018-02-21T00:45:22.577Z,99549.73
2018-02-21T00:47:48.901Z,99548.87
2018-02-21T00:50:15.338Z,99544.56
2018-02-21T00:52:41.670Z,99537.80
2018-02-21T00:55:08.055Z,99536.91
2018-02-21T00:57:34.461Z,99539.62
2018-02-21T01:00:00.834Z,99533.44
2018-02-21T01:02:27.286Z,99536.31
2018-02-21T01:04:53.737Z,99531.33
2018-02-21T01:07:20.132Z,99534.06
2018-02-21T01:09:46.487Z,99537.17
2018-02-21T01:12:12.910Z,99534.75
2018-02-21T01:14:39.250Z,99537.60
2018-02-21T01:17:05.637Z,99541.03
2018-02-21T01:19:32.055Z,99538.23
2018-02-21T01:21:58.438Z,99533.06
2018-02-21T01:24:24.833Z,99533.97
2018-02-21T01:26:51.330Z,99531.45
2018-02-21T01:29:17.685Z,99528.02
2018-02-21T01:31:44.134Z,99525.92
2018-02-21T01:34:10.526Z,99523.23
2018-02-21T01:36:36.897Z,99523.78
2018-02-21T01:39:03.389Z,99528.48
2018-02-21T01:41:29.822Z,99523.41
2018-02-21T01:43:56.198Z,99516.55
2018-02-21T01:46:22.565Z,99516.20
2018-02-21T01:48:48.922Z,99513.74
2018-02-21T01:51:15.362Z,99516.30
2018-02-21T01:53:41.816Z,99513.86
2018-02-21T01:56:08.205Z,99509.16
2018-02-21T01:58:34.604Z,99501.20
2018-02-21T02:01:00.995Z,99499.56
2018-02-21T02:03:27.365Z,99502.64
2018-02-21T02:05:53.813Z,99499.10
2018-02-21T02:08:20.202Z,99495.09
2018-02-21T02:10:46.633Z,99496.59
2018-02-21T02:13:13.141Z,99493.09
2018-02-21T02:15:39.530Z,99487.27
2018-02-21T02:18:06.010Z,99490.00
2018-02-21T02:20:32.516Z,99489.18
2018-02-21T02:22:58.918Z,99486.39
2018-02-21T02:25:25.334Z,99483.46
2018-02-21T02:27:51.758Z,99487.53
2018-02-21T02:30:18.178Z,99488.07
2018-02-21T02:32:44.619Z,99482.22
2018-02-21T02:35:11.054Z,99482.91
2018-02-21T02:37:37.426Z,99484.93
2018-02-21T02:40:03.824Z,99480.65
2018-02-21T02:42:30.371Z,99480.94
2018-02-21T02:44:56.724Z,99474.59
2018-02-21T02:47:23.137Z,99475.08
2018-02-21T02:49:49.601Z,99479.47
2018-02-21T02:52:15.981Z,99470.94
2018-02-21T02:54:42.309Z,99474.48
2018-02-21T02:57:08.742Z,99467.41
2018-02-21T02:59:35.118Z,99471.08
2018-02-21T03:02:01.482Z,99469.33
2018-02-21T03:04:27.893Z,99462.38
2018-02-21T03:06:54.327Z,99468.81
2018-02-21T03:09:20.748Z,99468.47
2018-02-21T03:11:47.181Z,99475.19
2018-02-21T03:14:13.536Z,99473.86
2018-02-21T03:16:39.905Z,99474.92
2018-02-21T03:19:06.374Z,99476.23
2018-02-21T03:21:32.790Z,99472.02
2018-02-21T03:23:59.208Z,99467.16
2018-02-21T03:26:25.640Z,99472.57
2018-02-21T03:28:52.001Z,99473.69
2018-02-21T03:31:18.345Z,99467.58
2018-02-21T03:33:44.778Z,99472.00
2018-02-21T03:36:11.190Z,99476.16
2018-02-21T03:38:37.599Z,99476.56
2018-02-21T03:41:04.030Z,99474.38
2018-02-21T03:43:30.502Z,99475.44
2018-02-21T03:45:56.895Z,99473.17
2018-02-21T03:48:23.278Z,99478.13
2018-02-21T03:50:49.654Z,99475.98
2018-02-21T03:53:16.091Z,99470.75
2018-02-21T03:55:42.464Z,99474.73
2018-02-21T03:58:08.801Z,99480.90
2018-02-21T04:00:35.393Z,99481.03
2018-02-21T04:03:01.802Z,99481.08
2018-02-21T04:05:28.154Z,99481.29
2018-02-21T04:07:54.556Z,99479.22
2018-02-21T04:10:21.009Z,99478.07
2018-02-21T04:12:47.405Z,99474.65
2018-02-21T04:15:13.814Z,99476.47
2018-02-21T04:17:40.212Z,99482.07
2018-02-21T04:20:06.681Z,99480.72
2018-02-21T04:22:33.129Z,99477.19
2018-02-21T04:24:59.535Z,99483.09
2018-02-21T04:27:26.049Z,99478.93
2018-02-21T04:29:52.428Z,99480.52
2018-02-21T04:32:18.888Z,99483.55
2018-02-21T04:34:45.430Z,99482.32
2018-02-21T04:37:11.792Z,99481.21
2018-02-21T04:39:38.166Z,99481.52
2018-02-21T04:42:04.673Z,99473.98
2018-02-21T04:44:30.997Z,99480.52
2018-02-21T04:46:57.398Z,99478.67
2018-02-21T04:49:23.988Z,99472.55
2018-02-21T04:51:50.392Z,99460.66
2018-02-21T04:54:17.812Z,99462.55
2018-02-21T05:10:01.124Z,99474.50
2018-02-21T05:12:27.461Z,99476.91
2018-02-21T05:14:53.929Z,99472.30
2018-02-21T05:17:20.358Z,99478.30
2018-02-21T05:19:46.765Z,99470.80
2018-02-21T05:22:13.169Z,99474.81
2018-02-21T05:24:39.697Z,99474.98
2018-02-21T05:27:06.121Z,99470.25
2018-02-21T05:29:32.463Z,99474.19
2018-02-21T05:31:58.857Z,99470.98
2018-02-21T05:34:25.277Z,99479.15
2018-02-21T05:36:51.710Z,99476.13
2018-02-21T05:39:18.041Z,99478.61
2018-02-21T05:41:44.490Z,99489.11
2018-02-21T05:44:10.949Z,99485.27
2018-02-21T05:46:37.354Z,99491.48
2018-02-21T05:49:03.751Z,99485.19
2018-02-21T05:51:30.210Z,99488.81
2018-02-21T05:53:56.686Z,99494.76
2018-02-21T05:56:23.551Z,99488.38
2018-02-21T05:58:51.276Z,99501.20
2018-02-21T06:01:18.538Z,99494.16
2018-02-21T06:03:45.121Z,99495.27
2018-02-21T06:06:11.583Z,99492.73
2018-02-21T06:08:38.010Z,99502.16
2018-02-21T06:11:04.533Z,99497.36
2018-02-21T06:13:30.974Z,99495.53
2018-02-21T06:15:57.429Z,99495.72
2018-02-21T06:18:23.839Z,99492.38
2018-02-21T06:20:50.334Z,99499.19
2018-02-21T06:23:16.721Z,99497.91
2018-02-21T06:25:43.197Z,99498.05
2018-02-21T06:28:09.818Z,99492.48
2018-02-21T06:30:36.194Z,99499.64
2018-02-21T06:33:02.584Z,99499.05
2018-02-21T06:35:29.092Z,99501.80
2018-02-21T06:37:55.464Z,99498.13
2018-02-21T06:40:21.834Z,99497.63
2018-02-21T06:42:48.301Z,99501.52
2018-02-21T06:45:14.718Z,99505.71
2018-02-21T06:47:41.097Z,99505.48
2018-02-21T06:50:07.578Z,99504.16
2018-02-21T06:52:33.974Z,99508.17
2018-02-21T06:55:00.477Z,99510.41
2018-02-21T06:57:26.875Z,99508.76
2018-02-21T06:59:53.220Z,99505.61
2018-02-21T07:02:31.885Z,99501.78
2018-02-21T07:04:58.339Z,99509.97
2018-02-21T07:07:24.760Z,99507.48
2018-02-21T07:09:51.294Z,99508.62
2018-02-21T07:12:17.754Z,99507.20
2018-02-21T07:14:44.221Z,99513.81
2018-02-21T07:17:10.621Z,99511.44
2018-02-21T07:19:37.185Z,99512.20
2018-02-21T07:22:03.640Z,99514.52
2018-02-21T07:24:29.999Z,99517.18
2018-02-21T07:26:56.485Z,99514.54
2018-02-21T07:29:22.894Z,99512.02
2018-02-21T07:31:49.329Z,99513.61
2018-02-21T07:34:15.788Z,99510.19
2018-02-21T07:36:42.174Z,99517.59
2018-02-21T07:39:08.565Z,99513.41
2018-02-21T07:41:35.047Z,99514.91
2018-02-21T07:44:01.452Z,99514.54
2018-02-21T07:46:27.816Z,99515.92
2018-02-21T07:48:54.270Z,99522.13
2018-02-21T07:51:20.649Z,99522.81
2018-02-21T07:53:47.110Z,99517.22
2018-02-21T07:56:13.554Z,99520.98
2018-02-21T07:58:40.030Z,99518.11
2018-02-21T08:01:06.567Z,99525.52
2018-02-21T08:03:33.005Z,99523.77
2018-02-21T08:05:59.641Z,99521.05
2018-02-21T08:08:26.138Z,99521.53
2018-02-21T08:10:52.527Z,99521.05
2018-02-21T08:13:18.886Z,99518.38
2018-02-21T08:15:45.315Z,99522.27
2018-02-21T08:18:11.726Z,99521.68
2018-02-21T08:20:38.210Z,99514.95
2018-02-21T08:23:04.634Z,99523.84
2018-02-21T08:25:31.025Z,99523.79
2018-02-21T08:27:57.435Z,99518.38
2018-02-21T08:30:24.040Z,99517.41
2018-02-21T08:32:50.486Z,99518.55
2018-02-21T08:35:16.921Z,99514.78
2018-02-21T08:37:43.431Z,99519.30
2018-02-21T08:40:09.833Z,99517.66
2018-02-21T08:42:36.265Z,99520.83
2018-02-21T08:45:02.721Z,99525.80
2018-02-21T08:47:29.086Z,99520.55
2018-02-21T08:49:55.470Z,99522.27
2018-02-21T08:52:21.950Z,99520.81
2018-02-21T08:54:48.392Z,99520.18
2018-02-21T08:57:17.657Z,99521.41
2018-02-21T08:59:45.211Z,99521.59
2018-02-21T09:02:11.623Z,99523.07
2018-02-21T09:04:37.985Z,99525.58
2018-02-21T09:07:04.431Z,99521.36
2018-02-21T09:09:30.823Z,99522.55
2018-02-21T09:11:57.170Z,99524.05
2018-02-21T09:14:23.614Z,99521.06
2018-02-21T09:16:49.962Z,99518.34
2018-02-21T09:19:16.397Z,99517.03
2018-02-21T09:21:42.864Z,99522.70
2018-02-21T09:24:09.230Z,99515.23
2018-02-21T09:26:44.653Z,99524.10
2018-02-21T09:29:11.405Z,99515.83
2018-02-21T09:31:37.805Z,99512.54
2018-02-21T09:34:04.250Z,99515.06
2018-02-21T09:36:30.739Z,99511.16
2018-02-21T09:38:57.210Z,99515.25
2018-02-21T09:41:25.840Z,99509.55
2018-02-21T09:43:52.301Z,99523.78
2018-02-21T09:46:20.947Z,99528.39
2018-02-21T09:48:49.334Z,99521.53
2018-02-21T09:51:16.366Z,99517.66
2018-02-21T09:53:42.739Z,99513.91
2018-02-21T09:56:09.798Z,99510.67
2018-02-21T09:58:36.394Z,99512.77
2018-02-21T10:01:02.789Z,99513.90
2018-02-21T10:03:29.290Z,99509.98
2018-02-21T10:05:55.703Z,99514.80
2018-02-21T10:08:22.054Z,99509.70
2018-02-21T10:10:48.467Z,99505.61
2018-02-21T10:13:14.830Z,99501.09
2018-02-21T10:15:41.236Z,99499.19
2018-02-21T10:18:07.712Z,99500.64
2018-02-21T10:20:34.180Z,99492.39
2018-02-21T10:23:00.690Z,99489.20
2018-02-21T10:25:27.066Z,99489.22
2018-02-21T10:27:53.539Z,99487.38
2018-02-21T10:30:19.937Z,99490.47
2018-02-21T10:32:46.423Z,99490.42
2018-02-21T10:35:12.840Z,99491.84
2018-02-21T10:37:41.382Z,99487.12
2018-02-21T10:40:07.794Z,99484.22
2018-02-21T10:42:34.290Z,99487.02
2018-02-21T10:45:00.683Z,99487.25
2018-02-21T10:47:27.041Z,99489.03
2018-02-21T10:49:53.457Z,99487.59
2018-02-21T10:52:19.906Z,99486.32
2018-02-21T10:54:46.254Z,99490.13
2018-02-21T10:57:12.706Z,99483.70
2018-02-21T10:59:39.090Z,99484.91
2018-02-21T11:02:05.560Z,99483.94
2018-02-21T11:04:32.067Z,99477.50
2018-02-21T11:06:58.482Z,99479.94
2018-02-21T11:09:24.962Z,99477.08
2018-02-21T11:11:51.453Z,99469.95
2018-02-21T11:14:17.833Z,99478.29
2018-02-21T11:16:44.245Z,99473.38
2018-02-21T11:19:10.761Z,99475.39
2018-02-21T11:21:37.113Z,99469.61
2018-02-21T11:24:03.611Z,99468.04
2018-02-21T11:26:30.062Z,99472.23
2018-02-21T11:28:56.407Z,99464.81
2018-02-21T11:31:22.897Z,99460.63
2018-02-21T11:33:49.284Z,99455.06
2018-02-21T11:36:15.678Z,99456.14
2018-02-21T11:38:42.168Z,99447.85
2018-02-21T11:41:08.626Z,99446.90
2018-02-21T11:43:35.043Z,99452.24
2018-02-21T11:46:01.614Z,99447.38
2018-02-21T11:48:29.382Z,99448.95
2018-02-21T11:50:55.875Z,99451.30
2018-02-21T11:53:22.386Z,99454.90
2018-02-21T11:55:48.737Z,99445.36
2018-02-21T11:58:15.177Z,99444.13
2018-02-21T12:00:41.665Z,99438.66
2018-02-21T12:03:08.161Z,99443.41
2018-02-21T12:05:35.469Z,99438.16
2018-02-21T12:08:02.390Z,99436.05
2018-02-21T12:10:28.838Z,99434.01
2018-02-21T12:12:55.232Z,99436.94
2018-02-21T12:15:21.713Z,99434.77
2018-02-21T12:17:48.165Z,99435.45
2018-02-21T12:20:14.498Z,99431.30
2018-02-21T12:22:40.961Z,99424.84
2018-02-21T12:25:07.418Z,99425.50
2018-02-21T12:27:33.830Z,99421.98
2018-02-21T12:30:00.443Z,99426.05
2018-02-21T12:32:27.651Z,99426.55
2018-02-21T12:34:54.351Z,99424.32
2018-02-21T12:37:20.832Z,99427.27
2018-02-21T12:39:47.657Z,99422.66
2018-02-21T12:42:13.993Z,99431.27
2018-02-21T12:44:40.430Z,99427.84
2018-02-21T12:47:06.814Z,99427.68
2018-02-21T12:49:33.224Z,99425.58
2018-02-21T12:51:59.726Z,99427.46
2018-02-21T12:54:26.198Z,99422.23
2018-02-21T12:56:52.566Z,99424.11
2018-02-21T12:59:19.085Z,99425.02
2018-02-21T13:01:45.486Z,99426.92
2018-02-21T13:04:12.163Z,99430.88
2018-02-21T13:06:38.582Z,99436.92
2018-02-21T13:09:05.175Z,99438.36
2018-02-21T13:11:31.549Z,99435.94
2018-02-21T13:13:58.017Z,99437.00
2018-02-21T13:16:24.436Z,99433.14
2018-02-21T13:18:50.839Z,99426.86
2018-02-21T13:21:17.284Z,99420.00
2018-02-21T13:23:43.762Z,99422.06
2018-02-21T13:26:10.174Z,99420.30
2018-02-21T13:28:36.573Z,99419.39
2018-02-21T13:31:02.961Z,99416.78
2018-02-21T13:33:35.830Z,99417.62
2018-02-21T13:36:04.270Z,99416.90
2018-02-21T13:38:30.699Z,99410.64
2018-02-21T13:40:57.191Z,99398.95
2018-02-21T13:43:23.554Z,99401.75
2018-02-21T13:45:49.933Z,99403.25
2018-02-21T13:48:16.357Z,99409.48
2018-02-21T13:50:42.739Z,99415.14
2018-02-21T13:55:53.716Z,99416.06
2018-02-21T13:58:25.129Z,99416.57
2018-02-21T14:00:51.736Z,99414.13
2018-02-21T14:03:18.149Z,99415.48
2018-02-21T14:05:44.621Z,99417.12
2018-02-21T14:08:11.042Z,99412.23
2018-02-21T14:10:37.510Z,99417.94
2018-02-21T14:13:03.962Z,99412.13
2018-02-21T14:15:30.457Z,99400.03
2018-02-21T14:17:56.889Z,99409.05
2018-02-21T14:20:23.385Z,99406.00
2018-02-21T14:22:49.803Z,99402.48
2018-02-21T14:25:16.215Z,99406.91
2018-02-21T14:27:42.726Z,99400.94
2018-02-21T14:30:09.134Z,99394.42
2018-02-21T14:32:35.642Z,99399.09
2018-02-21T14:35:02.163Z,99403.53
2018-02-21T14:37:28.607Z,99405.07
2018-02-21T14:39:55.041Z,99400.76
2018-02-21T14:42:21.510Z,99405.58
2018-02-21T14:44:48.094Z,99411.08
2018-02-21T14:47:14.478Z,99409.41
2018-02-21T14:49:40.991Z,99411.00
2018-02-21T14:52:07.550Z,99411.72
2018-02-21T14:54:34.031Z,99409.64
2018-02-21T14:57:00.412Z,99409.98
2018-02-21T14:59:26.790Z,99405.22
2018-02-21T15:01:53.301Z,99403.48
2018-02-21T15:04:19.718Z,99405.09
2018-02-21T15:06:46.190Z,99403.91
2018-02-21T15:09:12.769Z,99404.88
2018-02-21T15:11:39.247Z,99415.70
2018-02-21T15:14:05.637Z,99414.80
2018-02-21T15:16:32.070Z,99409.64
2018-02-21T15:18:58.442Z,99403.11
2018-02-21T15:21:24.898Z,99402.40
2018-02-21T15:23:51.354Z,99405.02
2018-02-21T15:26:17.730Z,99405.28
2018-02-21T15:28:44.274Z,99403.05
2018-02-21T15:31:10.800Z,99404.36
2018-02-21T15:33:37.198Z,99409.29
2018-02-21T15:36:03.698Z,99405.16
2018-02-21T15:38:30.183Z,99408.08
2018-02-21T15:40:56.565Z,99411.94
2018-02-21T15:43:23.159Z,99403.22
2018-02-21T15:45:49.702Z,99403.95
2018-02-21T15:48:16.195Z,99405.07
2018-02-21T15:50:42.629Z,99403.89
2018-02-21T15:53:09.122Z,99409.89
2018-02-21T15:55:35.551Z,99410.12
2018-02-21T15:58:01.981Z,99414.20
2018-02-21T16:00:28.480Z,99416.81
2018-02-21T16:02:54.827Z,99408.25
2018-02-21T16:05:21.232Z,99409.05
2018-02-21T16:07:47.913Z,99416.98
2018-02-21T16:10:14.335Z,99418.12
2018-02-21T16:12:40.731Z,99422.80
2018-02-21T16:15:07.164Z,99419.75
2018-02-21T16:17:33.685Z,99429.55
2018-02-21T16:20:00.161Z,99427.71
2018-02-21T16:22:26.645Z,99427.50
2018-02-21T16:24:53.085Z,99427.30
2018-02-21T16:27:19.505Z,99433.02
2018-02-21T16:29:45.944Z,99431.00
2018-02-21T16:32:12.361Z,99441.47
2018-02-21T16:34:38.746Z,99442.70
2018-02-21T16:37:05.226Z,99437.86
2018-02-21T16:39:31.862Z,99443.06
2018-02-21T16:41:58.265Z,99445.64
2018-02-21T16:44:24.725Z,99449.83
2018-02-21T16:46:51.129Z,99447.77
2018-02-21T16:49:17.754Z,99450.58
2018-02-21T16:51:44.214Z,99443.33
2018-02-21T16:54:16.605Z,99446.82
2018-02-21T16:56:43.113Z,99436.19
2018-02-21T16:59:09.553Z,99442.49
2018-02-21T17:01:35.906Z,99433.30
2018-02-21T17:04:02.326Z,99439.66
2018-02-21T17:06:28.798Z,99438.82
2018-02-21T17:08:55.251Z,99439.97
2018-02-21T17:11:21.666Z,99442.81
2018-02-21T17:13:48.075Z,99441.05
2018-02-21T17:16:14.525Z,99441.63
2018-02-21T17:18:41.081Z,99445.70
2018-02-21T17:21:07.425Z,99442.94
2018-02-21T17:23:33.850Z,99442.45
2018-02-21T17:26:00.447Z,99445.02
2018-02-21T17:28:26.888Z,99451.72
2018-02-21T17:30:53.334Z,99450.59
2018-02-21T17:33:19.870Z,99449.55
2018-02-21T17:35:46.302Z,99447.08
2018-02-21T17:38:12.738Z,99456.33
2018-02-21T17:40:39.269Z,99451.80
2018-02-21T17:43:05.685Z,99452.70
2018-02-21T17:45:32.137Z,99446.98
2018-02-21T17:47:58.581Z,99449.44
2018-02-21T17:50:25.062Z,99455.59
2018-02-21T17:52:51.488Z,99459.01
2018-02-21T17:55:17.902Z,99467.42
2018-02-21T17:57:44.338Z,99462.59
2018-02-21T18:00:10.815Z,99473.23
2018-02-21T18:02:37.683Z,99471.64
2018-02-21T18:05:04.179Z,99468.19
2018-02-21T18:07:30.581Z,99471.38
2018-02-21T18:09:57.166Z,99471.55
2018-02-21T18:12:23.665Z,99471.67
2018-02-21T18:14:50.048Z,99475.61
2018-02-21T18:17:16.521Z,99475.79
2018-02-21T18:19:43.708Z,99478.14
2018-02-21T18:22:10.176Z,99475.30
2018-02-21T18:24:36.617Z,99473.09
2018-02-21T18:27:02.997Z,99472.23
2018-02-21T18:29:29.406Z,99473.48
2018-02-21T18:31:55.845Z,99480.14
2018-02-21T18:34:22.468Z,99478.91
2018-02-21T18:36:48.918Z,99483.26
2018-02-21T18:39:15.481Z,99481.43
2018-02-21T18:41:41.878Z,99483.06
2018-02-21T18:44:08.246Z,99478.92
2018-02-21T18:46:34.697Z,99475.47
2018-02-21T18:49:01.153Z,99474.59
2018-02-21T18:51:27.545Z,99474.59
2018-02-21T18:53:53.989Z,99480.82
2018-02-21T18:56:20.478Z,99481.39
2018-02-21T18:58:46.933Z,99482.92
2018-02-21T19:01:13.358Z,99476.17
2018-02-21T19:03:39.742Z,99479.75
2018-02-21T19:06:06.110Z,99470.13
2018-02-21T19:08:32.550Z,99473.91
2018-02-21T19:10:58.962Z,99473.64
2018-02-21T19:13:25.391Z,99469.95
2018-02-21T19:15:51.872Z,99475.54
2018-02-21T19:18:18.324Z,99473.13
2018-02-21T19:20:44.752Z,99471.48
2018-02-21T19:23:11.227Z,99468.42
2018-02-21T19:25:37.645Z,99472.86
2018-02-21T19:28:04.037Z,99466.64
2018-02-21T19:30:30.511Z,99473.41
2018-02-21T19:32:56.921Z,99469.66
2018-02-21T19:35:23.331Z,99469.63
2018-02-21T19:37:49.728Z,99476.04
2018-02-21T19:40:16.173Z,99472.25
2018-02-21T19:42:42.550Z,99471.42
2018-02-21T19:45:08.982Z,99468.91
2018-02-21T19:47:35.414Z,99469.73
2018-02-21T19:50:01.806Z,99467.06
2018-02-21T19:52:28.237Z,99459.78
2018-02-21T19:54:54.674Z,99459.53
2018-02-21T19:57:21.125Z,99473.15
2018-02-21T19:59:47.617Z,99464.83
2018-02-21T20:02:13.987Z,99471.73
2018-02-21T20:04:40.370Z,99464.03
2018-02-21T20:07:06.815Z,99464.50
2018-02-21T20:09:33.238Z,99464.39
2018-02-21T20:11:59.692Z,99458.47
2018-02-21T20:14:26.165Z,99460.13
2018-02-21T20:16:52.546Z,99453.78
2018-02-21T20:19:19.017Z,99456.02
2018-02-21T20:21:45.510Z,99454.88
2018-02-21T20:24:11.946Z,99454.98
2018-02-21T20:26:38.374Z,99461.41
2018-02-21T20:29:04.782Z,99452.41
2018-02-21T20:31:31.191Z,99450.05
2018-02-21T20:33:57.592Z,99449.91
2018-02-21T20:36:24.032Z,99454.80
2018-02-21T20:38:50.401Z,99460.09
2018-02-21T20:41:16.796Z,99456.30
2018-02-21T20:43:43.234Z,99451.46
2018-02-21T20:46:09.638Z,99452.19
2018-02-21T20:48:36.042Z,99448.34
2018-02-21T20:51:02.396Z,99450.41
2018-02-21T20:53:28.805Z,99450.42
2018-02-21T20:55:55.286Z,99450.06
2018-02-21T20:58:21.616Z,99449.08
2018-02-21T21:00:47.981Z,99454.91
2018-02-21T21:03:14.496Z,99452.95
2018-02-21T21:05:40.916Z,99450.99
2018-02-21T21:08:07.328Z,99452.19
2018-02-21T21:10:33.761Z,99450.55
2018-02-21T21:13:00.127Z,99452.28
2018-02-21T21:15:26.554Z,99442.72
2018-02-21T21:17:53.013Z,99444.56
2018-02-21T21:20:19.387Z,99439.20
2018-02-21T21:22:45.774Z,99443.24
2018-02-21T21:25:12.209Z,99447.79
2018-02-21T21:27:38.625Z,99448.05
2018-02-21T21:30:05.358Z,99445.77
2018-02-21T21:32:31.817Z,99443.94
2018-02-21T21:34:58.163Z,99447.34
2018-02-21T21:37:24.569Z,99447.66
2018-02-21T21:39:50.958Z,99445.38
2018-02-21T21:42:17.698Z,99447.23
2018-02-21T21:44:44.142Z,99448.98
2018-02-21T21:47:10.553Z,99442.23
2018-02-21T21:49:37.100Z,99441.52
2018-02-21T21:52:03.537Z,99449.56
2018-02-21T21:54:29.902Z,99440.58
2018-02-21T21:56:56.353Z,99441.22
2018-02-21T21:59:22.769Z,99440.70
2018-02-21T22:01:49.164Z,99440.11
2018-02-21T22:04:15.577Z,99440.77
2018-02-21T22:06:41.978Z,99437.06
2018-02-21T22:09:08.362Z,99443.77
2018-02-21T22:11:34.802Z,99442.47
2018-02-21T22:14:01.214Z,99441.12
2018-02-21T22:16:27.629Z,99441.00
2018-02-21T22:18:54.125Z,99440.50
2018-02-21T22:21:20.472Z,99440.86
2018-02-21T22:23:46.883Z,99435.47
2018-02-21T22:26:13.321Z,99427.19
2018-02-21T22:28:39.689Z,99429.87
2018-02-21T22:31:06.049Z,99430.37
2018-02-21T22:33:32.626Z,99430.29
2018-02-21T22:35:59.066Z,99424.16
2018-02-21T22:38:25.521Z,99429.22
2018-02-21T22:40:51.916Z,99421.80
2018-02-21T22:43:18.390Z,99423.74
2018-02-21T22:45:44.833Z,99428.90
2018-02-21T22:48:11.249Z,99417.34
2018-02-21T22:50:37.689Z,99417.02
2018-02-21T22:53:04.165Z,99424.33
2018-02-21T22:55:30.725Z,99416.41
2018-02-21T22:57:57.150Z,99413.48
2018-02-21T23:00:23.646Z,99414.78
2018-02-21T23:02:50.105Z,99417.45
2018-02-21T23:05:16.468Z,99415.98
2018-02-21T23:07:42.845Z,99412.83
2018-02-21T23:10:09.450Z,99415.49
2018-02-21T23:12:35.832Z,99412.80
2018-02-21T23:15:02.165Z,99412.61
2018-02-21T23:17:28.640Z,99414.41
2018-02-21T23:19:54.990Z,99408.24
2018-02-21T23:22:21.361Z,99401.80
2018-02-21T23:24:47.792Z,99397.58
2018-02-21T23:27:14.222Z,99400.13
2018-02-21T23:29:40.639Z,99404.45
2018-02-21T23:32:07.038Z,99405.52
2018-02-21T23:34:33.434Z,99400.27
2018-02-21T23:36:59.762Z,99397.63
2018-02-21T23:39:26.189Z,99398.89
2018-02-21T23:41:52.585Z,99397.54
2018-02-21T23:44:18.954Z,99396.12
2018-02-21T23:46:45.398Z,99395.17
2018-02-21T23:49:11.807Z,99398.26
2018-02-21T23:51:38.237Z,99399.70
2018-02-21T23:54:04.685Z,99404.86
2018-02-21T23:56:31.073Z,99403.17
2018-02-21T23:58:57.445Z,99401.22
